Garden City Regional Airport
KGCK : now visible

Airfield :











YOU CAN JOIN US ON...

 
LOGIN :

Register | Disclaimer

   EN    FR    IT 

 









Legend :    VFR   Marginal VFR   IFR   Intensive IFR   Very Intensive IFR
Visi :
Ceiling :
>= 8 km
>= 3000ft
5 to 8 km
1000 to 3000 ft
1500m to 5 km
500 to 1000 ft
800 to 1500m
200 to 500 ft
< 800m
< 200 ft
Symbols :   Thunderstorms  Fog  Heavy snow  Heavy precipitations  Wind > 20 kt






- Airport Elevation : 2891 ft
- IATA code : GCK


KGCK - Garden City Regional

CURRENT METAR :
  • 141954Z 10009KT 10SM CLR 31/22 A2998 RMK AO2 SLP117 T03110222

EXPIRED METARs :
  • 141854Z 10010KT 10SM CLR 29/22 A2999 RMK AO2 SLP122 T02890222
  • 141754Z 14010KT 10SM CLR 28/23 A3000 RMK AO2 SLP121 T02830228 10283 20183 58001
  • 141705Z 18006KT 10SM FEW009 26/23 A3000 RMK AO2 T02560228

TAF KGCK
Valid from the 14 at 18:00 until the 15 at 18:00 UTC


141720Z 1418/1518 17008KT P6SM SCT010
FM142000 14008KT P6SM SKC
FM150100 11008KT P6SM VCTS SCT100CB
FM150500 05007KT P6SM SKC
KZKC FIR / North America



MET'MAP, your aeronautical weather chart ! - Copyright ORBIFLY December 2007 - Disclaimer

ORBIFLY MET'MAP TEAM :

Programming & Development : Alexandra Zaïnal
Concept & original design : Baudouin d'Aumeries
Assistance for programming : Marc-Olivier Méhu
Technical & hardware support : Manuel Goepfert

Contact : metmap@orbifly.com




SOURCES & CREDITS :

   NOAA       Earth
Advisory